Elgin, Tennessee
Current Conditions -  °F | °C
As of 11:12 AM on Thursday 27 Nov 2014 (Local Time) from KOQT Reporting Station
Light Rain Light Rain  
Wind Chill: 40°   Ceiling: 3200
Heat Index: 40°   Visibility: 10mi
Dew Point: 31°   Wind: 0mph
Humidity: 70%   Direction: NA
Pressure: 30.3"   Gusts: NA
Location:  36.33°N, 84.61°W
Report Text: KOQT 271612Z AUTO 00000KT 10SM -RA SCT021 BKN032 OVC039 04/M01 A3030 RMK AO2 RAB10 P0000 T00441006
Loading
Personal Weather Stations






























Interactive Weather Map New forecast layout! Learn more

10-Day Weather Forecast

Advertisements
Track Severe Weather on mobile